To NAV CANADA Home Page Login to a new session Search on AWWS site Feedback and Comments Disclaimer Vers la page française équivalente Tips FAQ What's new on the site To the Forecasts and Observations / NOTAM section To "File a Flight Plan" website Publications and other links Update of the User's profile FIC Telephone Numbers My Weather Data Folder Route Weather Data Regional Weather Data Local Weather Data To the Forecasts and Observations / NOTAM section
Request Generated 01/21/2017 at 02:10:48 UTC . Weather information available at that time is displayed.

METAR/TAF

GANDER/GANDER INTL/NL    

METAR CYQX 210200Z 02014G19KT 20SM OVC015 M05/M08 A2982 RMK SC8
SLP108=
METAR CYQX 210100Z 03009KT 20SM BKN016 M05/M08 A2985 RMK SC7 SLP120=
METAR CYQX 210000Z 03007KT 20SM OVC016 M06/M08 A2988 RMK SC8 SLP130=

TAF CYQX 202338Z 2100/2124 03008KT P6SM SCT004 OVC010 PROB30
2100/2103 2SM -FZDZ -SN OVC004
FM210300 02012G22KT P6SM SCT004 OVC010 TEMPO 2103/2106 OVC004
PROB30 2103/2106 2SM -FZDZ -SN OVC004
FM210600 36015G25KT P6SM OVC004 PROB40 2106/2114 2SM -FZDZ -SN
OVC002
FM211400 35020G30KT 4SM -SN SCT004 OVC010
FM211600 34020G35KT 2SM -SN BLSN OVC008
FM212200 32020G35KT P6SM -SN OVC010
RMK NXT FCST BY 210600Z=
Your time UTC time
Weather data provided by Environment Canada and NAV CANADA